Abilene, Kansas
Current Conditions -  °F | °C
As of 7:28 AM on Friday 19 Dec 2014 (Local Time) from KSLN Reporting Station
Haze Haze  
Wind Chill: 24°   Ceiling: 200
Heat Index: 30°   Visibility: 2.5mi
Dew Point: 28°   Wind: 6mph
Humidity: 92%   Direction: 130°SE
Pressure: 30.22"   Gusts: NA
Location:  38.92°N, 97.21°W
Report Text: KSLN 191328Z 13005KT 2 1/2SM BR OVC002 M01/M02 A3022 RMK AO2 T10111022
Loading
Personal Weather Stations






























Interactive Weather Map New forecast layout! Learn more

10-Day Weather Forecast

Advertisements
Track Severe Weather on mobile